sensor_id;sensor_type;location;lat;lon;timestamp;P1;durP1;ratioP1;P2;durP2;ratioP2
7939;SDS011;4015;48.888;9.226;2024-03-08T00:01:52;20.53;;;14.87;;
7939;SDS011;4015;48.888;9.226;2024-03-08T00:04:18;22.40;;;15.30;;
7939;SDS011;4015;48.888;9.226;2024-03-08T00:06:43;22.67;;;16.30;;
7939;SDS011;4015;48.888;9.226;2024-03-08T00:09:11;23.87;;;15.67;;
7939;SDS011;4015;48.888;9.226;2024-03-08T00:11:36;23.57;;;15.90;;
7939;SDS011;4015;48.888;9.226;2024-03-08T00:14:02;22.97;;;15.20;;
7939;SDS011;4015;48.888;9.226;2024-03-08T00:16:27;20.83;;;15.03;;
7939;SDS011;4015;48.888;9.226;2024-03-08T00:18:52;19.63;;;14.07;;
7939;SDS011;4015;48.888;9.226;2024-03-08T00:21:18;21.47;;;15.10;;
7939;SDS011;4015;48.888;9.226;2024-03-08T00:23:43;22.80;;;15.17;;
7939;SDS011;4015;48.888;9.226;2024-03-08T00:26:08;22.40;;;16.00;;
7939;SDS011;4015;48.888;9.226;2024-03-08T00:28:34;26.50;;;16.67;;
7939;SDS011;4015;48.888;9.226;2024-03-08T00:31:00;24.43;;;15.60;;
7939;SDS011;4015;48.888;9.226;2024-03-08T00:33:25;26.80;;;16.20;;
7939;SDS011;4015;48.888;9.226;2024-03-08T00:35:52;21.73;;;14.47;;
7939;SDS011;4015;48.888;9.226;2024-03-08T00:38:18;24.13;;;16.27;;
7939;SDS011;4015;48.888;9.226;2024-03-08T00:40:43;25.60;;;16.30;;
7939;SDS011;4015;48.888;9.226;2024-03-08T00:43:09;21.73;;;13.93;;
7939;SDS011;4015;48.888;9.226;2024-03-08T00:45:34;20.27;;;15.20;;
7939;SDS011;4015;48.888;9.226;2024-03-08T00:47:59;22.83;;;16.23;;
7939;SDS011;4015;48.888;9.226;2024-03-08T00:50:25;22.27;;;15.90;;
7939;SDS011;4015;48.888;9.226;2024-03-08T00:52:50;26.93;;;16.07;;
7939;SDS011;4015;48.888;9.226;2024-03-08T00:55:16;23.60;;;15.87;;
7939;SDS011;4015;48.888;9.226;2024-03-08T00:57:41;25.97;;;15.30;;
7939;SDS011;4015;48.888;9.226;2024-03-08T01:00:07;27.60;;;16.67;;
7939;SDS011;4015;48.888;9.226;2024-03-08T01:02:36;22.37;;;15.50;;
7939;SDS011;4015;48.888;9.226;2024-03-08T01:05:02;23.37;;;14.93;;
7939;SDS011;4015;48.888;9.226;2024-03-08T01:07:29;19.93;;;14.67;;
7939;SDS011;4015;48.888;9.226;2024-03-08T01:09:55;20.70;;;15.63;;
7939;SDS011;4015;48.888;9.226;2024-03-08T01:12:20;22.17;;;15.70;;
7939;SDS011;4015;48.888;9.226;2024-03-08T01:14:47;23.47;;;15.30;;
7939;SDS011;4015;48.888;9.226;2024-03-08T01:17:12;24.20;;;16.17;;
7939;SDS011;4015;48.888;9.226;2024-03-08T01:19:38;23.50;;;14.90;;
7939;SDS011;4015;48.888;9.226;2024-03-08T01:22:03;20.60;;;14.60;;
7939;SDS011;4015;48.888;9.226;2024-03-08T01:24:29;19.93;;;15.70;;
7939;SDS011;4015;48.888;9.226;2024-03-08T01:26:54;21.90;;;15.77;;
7939;SDS011;4015;48.888;9.226;2024-03-08T01:29:19;26.67;;;15.27;;
7939;SDS011;4015;48.888;9.226;2024-03-08T01:31:45;22.43;;;15.60;;
7939;SDS011;4015;48.888;9.226;2024-03-08T01:34:10;21.13;;;15.63;;
7939;SDS011;4015;48.888;9.226;2024-03-08T01:36:35;22.77;;;15.17;;
7939;SDS011;4015;48.888;9.226;2024-03-08T01:39:02;23.33;;;15.90;;
7939;SDS011;4015;48.888;9.226;2024-03-08T01:41:32;22.57;;;15.93;;
7939;SDS011;4015;48.888;9.226;2024-03-08T01:43:58;20.80;;;15.43;;
7939;SDS011;4015;48.888;9.226;2024-03-08T01:46:24;23.70;;;16.03;;
7939;SDS011;4015;48.888;9.226;2024-03-08T01:48:49;21.27;;;15.13;;
7939;SDS011;4015;48.888;9.226;2024-03-08T01:51:15;24.63;;;16.40;;
7939;SDS011;4015;48.888;9.226;2024-03-08T01:53:41;22.87;;;16.23;;
7939;SDS011;4015;48.888;9.226;2024-03-08T01:56:08;21.17;;;14.43;;
7939;SDS011;4015;48.888;9.226;2024-03-08T01:58:33;21.70;;;14.63;;
7939;SDS011;4015;48.888;9.226;2024-03-08T02:01:00;23.30;;;14.83;;
7939;SDS011;4015;48.888;9.226;2024-03-08T02:03:29;24.17;;;15.10;;
7939;SDS011;4015;48.888;9.226;2024-03-08T02:05:56;26.10;;;16.10;;
7939;SDS011;4015;48.888;9.226;2024-03-08T02:08:23;22.37;;;15.77;;
7939;SDS011;4015;48.888;9.226;2024-03-08T02:10:49;21.00;;;15.43;;
7939;SDS011;4015;48.888;9.226;2024-03-08T02:13:14;22.70;;;15.73;;
7939;SDS011;4015;48.888;9.226;2024-03-08T02:15:49;21.27;;;14.87;;
7939;SDS011;4015;48.888;9.226;2024-03-08T02:18:22;25.60;;;16.23;;
7939;SDS011;4015;48.888;9.226;2024-03-08T02:20:58;28.17;;;16.63;;
7939;SDS011;4015;48.888;9.226;2024-03-08T02:23:24;24.00;;;16.17;;
7939;SDS011;4015;48.888;9.226;2024-03-08T02:25:51;24.90;;;16.07;;
7939;SDS011;4015;48.888;9.226;2024-03-08T02:28:18;22.40;;;16.53;;
7939;SDS011;4015;48.888;9.226;2024-03-08T02:30:45;26.93;;;17.20;;
7939;SDS011;4015;48.888;9.226;2024-03-08T02:33:14;24.97;;;16.90;;
7939;SDS011;4015;48.888;9.226;2024-03-08T02:35:43;23.73;;;15.87;;
7939;SDS011;4015;48.888;9.226;2024-03-08T02:38:12;22.43;;;15.80;;
7939;SDS011;4015;48.888;9.226;2024-03-08T02:40:41;23.13;;;16.57;;
7939;SDS011;4015;48.888;9.226;2024-03-08T02:43:08;24.17;;;15.80;;
7939;SDS011;4015;48.888;9.226;2024-03-08T02:45:33;21.83;;;15.57;;
7939;SDS011;4015;48.888;9.226;2024-03-08T02:47:59;19.73;;;15.00;;
7939;SDS011;4015;48.888;9.226;2024-03-08T02:50:25;22.50;;;15.30;;
7939;SDS011;4015;48.888;9.226;2024-03-08T02:52:51;21.27;;;15.10;;
7939;SDS011;4015;48.888;9.226;2024-03-08T02:55:16;25.93;;;17.17;;
7939;SDS011;4015;48.888;9.226;2024-03-08T02:57:41;22.30;;;14.40;;
7939;SDS011;4015;48.888;9.226;2024-03-08T03:00:08;20.83;;;14.93;;
7939;SDS011;4015;48.888;9.226;2024-03-08T03:02:34;23.40;;;15.30;;
7939;SDS011;4015;48.888;9.226;2024-03-08T03:04:59;22.67;;;15.50;;
7939;SDS011;4015;48.888;9.226;2024-03-08T03:07:30;19.37;;;13.73;;
7939;SDS011;4015;48.888;9.226;2024-03-08T03:09:55;20.77;;;14.33;;
7939;SDS011;4015;48.888;9.226;2024-03-08T03:12:20;22.30;;;14.37;;
7939;SDS011;4015;48.888;9.226;2024-03-08T03:14:46;25.20;;;15.87;;
7939;SDS011;4015;48.888;9.226;2024-03-08T03:17:12;24.57;;;15.03;;
7939;SDS011;4015;48.888;9.226;2024-03-08T03:19:40;19.30;;;14.13;;
7939;SDS011;4015;48.888;9.226;2024-03-08T03:22:05;20.87;;;13.53;;
7939;SDS011;4015;48.888;9.226;2024-03-08T03:24:32;24.23;;;14.97;;
7939;SDS011;4015;48.888;9.226;2024-03-08T03:26:58;22.50;;;14.13;;
7939;SDS011;4015;48.888;9.226;2024-03-08T03:29:24;20.87;;;13.40;;
7939;SDS011;4015;48.888;9.226;2024-03-08T03:31:50;19.33;;;13.90;;
7939;SDS011;4015;48.888;9.226;2024-03-08T03:34:15;21.77;;;14.27;;
7939;SDS011;4015;48.888;9.226;2024-03-08T03:36:41;25.20;;;15.70;;
7939;SDS011;4015;48.888;9.226;2024-03-08T03:39:11;22.30;;;14.30;;
7939;SDS011;4015;48.888;9.226;2024-03-08T03:41:38;21.33;;;14.33;;
7939;SDS011;4015;48.888;9.226;2024-03-08T03:44:04;24.90;;;14.60;;
7939;SDS011;4015;48.888;9.226;2024-03-08T03:46:31;19.43;;;13.47;;
7939;SDS011;4015;48.888;9.226;2024-03-08T03:48:57;21.90;;;14.80;;
7939;SDS011;4015;48.888;9.226;2024-03-08T03:51:23;22.37;;;14.77;;
7939;SDS011;4015;48.888;9.226;2024-03-08T03:53:48;21.37;;;14.37;;
7939;SDS011;4015;48.888;9.226;2024-03-08T03:56:13;20.47;;;13.53;;
7939;SDS011;4015;48.888;9.226;2024-03-08T03:58:39;19.93;;;14.10;;
7939;SDS011;4015;48.888;9.226;2024-03-08T04:01:04;18.90;;;12.57;;
7939;SDS011;4015;48.888;9.226;2024-03-08T04:03:30;20.57;;;12.60;;
7939;SDS011;4015;48.888;9.226;2024-03-08T04:05:55;23.40;;;14.40;;
7939;SDS011;4015;48.888;9.226;2024-03-08T04:08:21;21.00;;;13.63;;
7939;SDS011;4015;48.888;9.226;2024-03-08T04:10:46;20.63;;;14.03;;
7939;SDS011;4015;48.888;9.226;2024-03-08T04:13:11;20.07;;;13.33;;
7939;SDS011;4015;48.888;9.226;2024-03-08T04:15:37;20.10;;;12.93;;
7939;SDS011;4015;48.888;9.226;2024-03-08T04:18:03;22.20;;;13.70;;
7939;SDS011;4015;48.888;9.226;2024-03-08T04:20:28;19.77;;;14.17;;
7939;SDS011;4015;48.888;9.226;2024-03-08T04:22:54;18.93;;;13.30;;
7939;SDS011;4015;48.888;9.226;2024-03-08T04:25:19;20.27;;;14.47;;
7939;SDS011;4015;48.888;9.226;2024-03-08T04:27:45;21.17;;;13.40;;
7939;SDS011;4015;48.888;9.226;2024-03-08T04:30:12;21.77;;;14.40;;
7939;SDS011;4015;48.888;9.226;2024-03-08T04:32:37;23.13;;;15.37;;
7939;SDS011;4015;48.888;9.226;2024-03-08T04:35:03;23.00;;;14.77;;
7939;SDS011;4015;48.888;9.226;2024-03-08T04:37:28;22.53;;;15.23;;
7939;SDS011;4015;48.888;9.226;2024-03-08T04:39:57;20.57;;;12.83;;
7939;SDS011;4015;48.888;9.226;2024-03-08T04:42:23;19.83;;;13.33;;
7939;SDS011;4015;48.888;9.226;2024-03-08T04:44:50;18.13;;;13.57;;
7939;SDS011;4015;48.888;9.226;2024-03-08T04:47:15;21.20;;;14.23;;
7939;SDS011;4015;48.888;9.226;2024-03-08T04:49:42;20.93;;;14.43;;
7939;SDS011;4015;48.888;9.226;2024-03-08T04:52:08;24.90;;;15.17;;
7939;SDS011;4015;48.888;9.226;2024-03-08T04:54:33;23.30;;;13.93;;
7939;SDS011;4015;48.888;9.226;2024-03-08T04:56:59;20.67;;;13.67;;
7939;SDS011;4015;48.888;9.226;2024-03-08T04:59:25;24.93;;;15.73;;
7939;SDS011;4015;48.888;9.226;2024-03-08T05:01:51;20.23;;;14.17;;
7939;SDS011;4015;48.888;9.226;2024-03-08T05:04:17;19.07;;;14.10;;
7939;SDS011;4015;48.888;9.226;2024-03-08T05:06:42;22.53;;;14.67;;
7939;SDS011;4015;48.888;9.226;2024-03-08T05:09:07;22.33;;;13.73;;
7939;SDS011;4015;48.888;9.226;2024-03-08T05:11:45;19.47;;;13.87;;
7939;SDS011;4015;48.888;9.226;2024-03-08T05:14:11;21.00;;;13.87;;
7939;SDS011;4015;48.888;9.226;2024-03-08T05:16:41;22.13;;;14.90;;
7939;SDS011;4015;48.888;9.226;2024-03-08T05:19:07;21.90;;;14.10;;
7939;SDS011;4015;48.888;9.226;2024-03-08T05:21:32;18.33;;;13.70;;
7939;SDS011;4015;48.888;9.226;2024-03-08T05:23:58;19.73;;;13.90;;
7939;SDS011;4015;48.888;9.226;2024-03-08T05:26:23;18.50;;;13.17;;
7939;SDS011;4015;48.888;9.226;2024-03-08T05:28:48;22.63;;;15.37;;
7939;SDS011;4015;48.888;9.226;2024-03-08T05:31:20;21.23;;;14.30;;
7939;SDS011;4015;48.888;9.226;2024-03-08T05:33:49;21.37;;;14.77;;
7939;SDS011;4015;48.888;9.226;2024-03-08T05:36:14;19.33;;;12.80;;
7939;SDS011;4015;48.888;9.226;2024-03-08T05:38:41;22.13;;;14.03;;
7939;SDS011;4015;48.888;9.226;2024-03-08T05:41:08;21.20;;;14.10;;
7939;SDS011;4015;48.888;9.226;2024-03-08T05:43:34;19.37;;;13.40;;
7939;SDS011;4015;48.888;9.226;2024-03-08T05:45:59;18.47;;;14.40;;
7939;SDS011;4015;48.888;9.226;2024-03-08T05:48:24;25.13;;;14.37;;
7939;SDS011;4015;48.888;9.226;2024-03-08T05:50:50;22.03;;;14.50;;
7939;SDS011;4015;48.888;9.226;2024-03-08T05:53:15;18.67;;;14.40;;
7939;SDS011;4015;48.888;9.226;2024-03-08T05:55:40;19.20;;;13.83;;
7939;SDS011;4015;48.888;9.226;2024-03-08T05:58:06;23.40;;;14.93;;
7939;SDS011;4015;48.888;9.226;2024-03-08T06:00:32;20.50;;;14.67;;
7939;SDS011;4015;48.888;9.226;2024-03-08T06:02:58;20.40;;;13.97;;
7939;SDS011;4015;48.888;9.226;2024-03-08T06:05:24;20.50;;;12.07;;
7939;SDS011;4015;48.888;9.226;2024-03-08T06:07:49;19.93;;;13.97;;
7939;SDS011;4015;48.888;9.226;2024-03-08T06:10:14;22.67;;;15.33;;
7939;SDS011;4015;48.888;9.226;2024-03-08T06:12:42;24.23;;;15.87;;
7939;SDS011;4015;48.888;9.226;2024-03-08T06:15:08;25.13;;;15.60;;
7939;SDS011;4015;48.888;9.226;2024-03-08T06:17:35;27.53;;;17.60;;
7939;SDS011;4015;48.888;9.226;2024-03-08T06:20:01;20.53;;;14.47;;
7939;SDS011;4015;48.888;9.226;2024-03-08T06:22:26;23.97;;;16.67;;
7939;SDS011;4015;48.888;9.226;2024-03-08T06:24:51;28.50;;;17.17;;
7939;SDS011;4015;48.888;9.226;2024-03-08T06:27:19;22.07;;;14.87;;
7939;SDS011;4015;48.888;9.226;2024-03-08T06:29:44;25.10;;;15.27;;
7939;SDS011;4015;48.888;9.226;2024-03-08T06:32:09;24.50;;;15.13;;
7939;SDS011;4015;48.888;9.226;2024-03-08T06:34:35;23.17;;;15.10;;
7939;SDS011;4015;48.888;9.226;2024-03-08T06:37:00;24.00;;;15.30;;
7939;SDS011;4015;48.888;9.226;2024-03-08T06:39:26;21.97;;;14.40;;
7939;SDS011;4015;48.888;9.226;2024-03-08T06:41:53;25.63;;;16.20;;
7939;SDS011;4015;48.888;9.226;2024-03-08T06:44:19;21.70;;;15.03;;
7939;SDS011;4015;48.888;9.226;2024-03-08T06:46:46;21.90;;;14.67;;
7939;SDS011;4015;48.888;9.226;2024-03-08T06:49:13;21.90;;;14.87;;
7939;SDS011;4015;48.888;9.226;2024-03-08T06:51:39;22.03;;;15.10;;
7939;SDS011;4015;48.888;9.226;2024-03-08T06:54:06;23.23;;;14.73;;
7939;SDS011;4015;48.888;9.226;2024-03-08T06:56:33;21.83;;;14.07;;
7939;SDS011;4015;48.888;9.226;2024-03-08T06:59:02;23.77;;;16.20;;
7939;SDS011;4015;48.888;9.226;2024-03-08T07:01:28;22.50;;;14.80;;
7939;SDS011;4015;48.888;9.226;2024-03-08T07:03:57;30.70;;;16.47;;
7939;SDS011;4015;48.888;9.226;2024-03-08T07:06:23;23.13;;;14.93;;
7939;SDS011;4015;48.888;9.226;2024-03-08T07:08:48;21.87;;;15.40;;
7939;SDS011;4015;48.888;9.226;2024-03-08T07:11:14;21.17;;;15.60;;
7939;SDS011;4015;48.888;9.226;2024-03-08T07:13:43;18.73;;;14.90;;
7939;SDS011;4015;48.888;9.226;2024-03-08T07:16:10;20.10;;;15.47;;
7939;SDS011;4015;48.888;9.226;2024-03-08T07:18:36;22.93;;;15.87;;
7939;SDS011;4015;48.888;9.226;2024-03-08T07:21:05;20.60;;;14.93;;
7939;SDS011;4015;48.888;9.226;2024-03-08T07:23:30;23.07;;;15.73;;
7939;SDS011;4015;48.888;9.226;2024-03-08T07:26:19;22.30;;;15.53;;
7939;SDS011;4015;48.888;9.226;2024-03-08T07:28:45;20.70;;;14.87;;
7939;SDS011;4015;48.888;9.226;2024-03-08T07:31:10;24.43;;;16.03;;
7939;SDS011;4015;48.888;9.226;2024-03-08T07:33:48;20.67;;;15.60;;
7939;SDS011;4015;48.888;9.226;2024-03-08T07:36:15;24.93;;;15.70;;
7939;SDS011;4015;48.888;9.226;2024-03-08T07:38:41;23.37;;;16.40;;
7939;SDS011;4015;48.888;9.226;2024-03-08T07:41:06;20.33;;;14.43;;
7939;SDS011;4015;48.888;9.226;2024-03-08T07:43:31;30.63;;;21.30;;
7939;SDS011;4015;48.888;9.226;2024-03-08T07:45:57;26.33;;;17.73;;
7939;SDS011;4015;48.888;9.226;2024-03-08T07:48:23;21.90;;;16.20;;
7939;SDS011;4015;48.888;9.226;2024-03-08T07:50:48;21.27;;;15.10;;
7939;SDS011;4015;48.888;9.226;2024-03-08T07:53:15;20.13;;;14.87;;
7939;SDS011;4015;48.888;9.226;2024-03-08T07:55:40;21.93;;;15.30;;
7939;SDS011;4015;48.888;9.226;2024-03-08T07:58:08;22.47;;;15.73;;
7939;SDS011;4015;48.888;9.226;2024-03-08T08:00:36;22.60;;;16.00;;
7939;SDS011;4015;48.888;9.226;2024-03-08T08:03:02;20.63;;;15.10;;
7939;SDS011;4015;48.888;9.226;2024-03-08T08:05:28;22.60;;;15.67;;
7939;SDS011;4015;48.888;9.226;2024-03-08T08:07:53;21.77;;;16.43;;
7939;SDS011;4015;48.888;9.226;2024-03-08T08:10:19;18.93;;;15.03;;
7939;SDS011;4015;48.888;9.226;2024-03-08T08:12:49;24.63;;;15.37;;
7939;SDS011;4015;48.888;9.226;2024-03-08T08:15:16;19.70;;;14.43;;
7939;SDS011;4015;48.888;9.226;2024-03-08T08:17:42;22.93;;;16.13;;
7939;SDS011;4015;48.888;9.226;2024-03-08T08:20:09;21.60;;;16.20;;
7939;SDS011;4015;48.888;9.226;2024-03-08T08:22:36;20.23;;;15.23;;
7939;SDS011;4015;48.888;9.226;2024-03-08T08:25:03;20.60;;;14.83;;
7939;SDS011;4015;48.888;9.226;2024-03-08T08:27:29;28.23;;;16.37;;
7939;SDS011;4015;48.888;9.226;2024-03-08T08:29:54;20.90;;;15.77;;
7939;SDS011;4015;48.888;9.226;2024-03-08T08:32:20;20.20;;;14.53;;
7939;SDS011;4015;48.888;9.226;2024-03-08T08:34:46;22.00;;;15.97;;
7939;SDS011;4015;48.888;9.226;2024-03-08T08:37:11;25.00;;;16.53;;
7939;SDS011;4015;48.888;9.226;2024-03-08T08:39:37;23.87;;;16.80;;
7939;SDS011;4015;48.888;9.226;2024-03-08T08:42:03;22.97;;;16.57;;
7939;SDS011;4015;48.888;9.226;2024-03-08T08:44:28;23.80;;;15.27;;
7939;SDS011;4015;48.888;9.226;2024-03-08T08:46:54;24.97;;;15.60;;
7939;SDS011;4015;48.888;9.226;2024-03-08T08:49:19;21.80;;;16.50;;
7939;SDS011;4015;48.888;9.226;2024-03-08T08:51:48;22.73;;;15.60;;
7939;SDS011;4015;48.888;9.226;2024-03-08T08:54:14;19.10;;;14.67;;
7939;SDS011;4015;48.888;9.226;2024-03-08T08:56:42;20.77;;;16.07;;
7939;SDS011;4015;48.888;9.226;2024-03-08T08:59:09;21.10;;;15.37;;
7939;SDS011;4015;48.888;9.226;2024-03-08T09:01:34;19.67;;;15.47;;
7939;SDS011;4015;48.888;9.226;2024-03-08T09:03:59;21.80;;;15.47;;
7939;SDS011;4015;48.888;9.226;2024-03-08T09:06:25;19.70;;;15.03;;
7939;SDS011;4015;48.888;9.226;2024-03-08T09:08:50;19.63;;;14.67;;
7939;SDS011;4015;48.888;9.226;2024-03-08T09:11:16;20.90;;;15.40;;
7939;SDS011;4015;48.888;9.226;2024-03-08T09:13:44;20.93;;;15.30;;
7939;SDS011;4015;48.888;9.226;2024-03-08T09:16:10;21.97;;;14.17;;
7939;SDS011;4015;48.888;9.226;2024-03-08T09:18:36;21.53;;;15.27;;
7939;SDS011;4015;48.888;9.226;2024-03-08T09:21:01;19.70;;;14.17;;
7939;SDS011;4015;48.888;9.226;2024-03-08T09:23:26;22.10;;;14.87;;
7939;SDS011;4015;48.888;9.226;2024-03-08T09:25:55;21.00;;;14.27;;
7939;SDS011;4015;48.888;9.226;2024-03-08T09:28:22;20.60;;;14.50;;
7939;SDS011;4015;48.888;9.226;2024-03-08T09:30:48;21.87;;;15.83;;
7939;SDS011;4015;48.888;9.226;2024-03-08T09:33:14;20.93;;;15.17;;
7939;SDS011;4015;48.888;9.226;2024-03-08T09:35:44;21.07;;;13.73;;
7939;SDS011;4015;48.888;9.226;2024-03-08T09:38:11;20.53;;;15.17;;
7939;SDS011;4015;48.888;9.226;2024-03-08T09:40:38;19.80;;;14.57;;
7939;SDS011;4015;48.888;9.226;2024-03-08T09:43:03;18.67;;;14.20;;
7939;SDS011;4015;48.888;9.226;2024-03-08T09:45:29;20.53;;;14.57;;
7939;SDS011;4015;48.888;9.226;2024-03-08T09:48:00;20.10;;;14.43;;
7939;SDS011;4015;48.888;9.226;2024-03-08T09:50:26;19.90;;;14.37;;
7939;SDS011;4015;48.888;9.226;2024-03-08T09:52:54;22.70;;;15.30;;
7939;SDS011;4015;48.888;9.226;2024-03-08T09:55:22;21.93;;;15.10;;
7939;SDS011;4015;48.888;9.226;2024-03-08T09:57:49;23.80;;;15.87;;
7939;SDS011;4015;48.888;9.226;2024-03-08T10:00:39;21.43;;;14.30;;
7939;SDS011;4015;48.888;9.226;2024-03-08T10:03:04;18.33;;;12.73;;
7939;SDS011;4015;48.888;9.226;2024-03-08T10:05:30;20.43;;;13.40;;
7939;SDS011;4015;48.888;9.226;2024-03-08T10:07:58;20.93;;;13.43;;
7939;SDS011;4015;48.888;9.226;2024-03-08T10:10:23;19.03;;;12.93;;
7939;SDS011;4015;48.888;9.226;2024-03-08T10:12:49;20.13;;;14.40;;
7939;SDS011;4015;48.888;9.226;2024-03-08T10:15:15;20.27;;;14.90;;
7939;SDS011;4015;48.888;9.226;2024-03-08T10:17:41;21.40;;;15.27;;
7939;SDS011;4015;48.888;9.226;2024-03-08T10:20:18;22.50;;;15.23;;
7939;SDS011;4015;48.888;9.226;2024-03-08T10:22:44;16.23;;;12.23;;
7939;SDS011;4015;48.888;9.226;2024-03-08T10:25:10;19.87;;;14.33;;
7939;SDS011;4015;48.888;9.226;2024-03-08T10:27:37;19.00;;;14.23;;
7939;SDS011;4015;48.888;9.226;2024-03-08T10:30:04;18.97;;;13.77;;
7939;SDS011;4015;48.888;9.226;2024-03-08T10:32:31;21.53;;;13.87;;
7939;SDS011;4015;48.888;9.226;2024-03-08T10:34:57;20.57;;;13.83;;
7939;SDS011;4015;48.888;9.226;2024-03-08T10:37:22;21.57;;;14.03;;
7939;SDS011;4015;48.888;9.226;2024-03-08T10:39:53;20.97;;;14.53;;
7939;SDS011;4015;48.888;9.226;2024-03-08T10:42:36;18.47;;;13.57;;
7939;SDS011;4015;48.888;9.226;2024-03-08T10:45:37;24.07;;;14.47;;
7939;SDS011;4015;48.888;9.226;2024-03-08T10:50:58;20.93;;;15.03;;
7939;SDS011;4015;48.888;9.226;2024-03-08T10:53:27;21.97;;;14.10;;
7939;SDS011;4015;48.888;9.226;2024-03-08T10:55:55;20.20;;;14.17;;
7939;SDS011;4015;48.888;9.226;2024-03-08T10:58:22;21.97;;;14.93;;
7939;SDS011;4015;48.888;9.226;2024-03-08T11:00:52;22.40;;;17.00;;
7939;SDS011;4015;48.888;9.226;2024-03-08T11:06:22;20.50;;;14.90;;
7939;SDS011;4015;48.888;9.226;2024-03-08T11:09:03;19.83;;;13.30;;
7939;SDS011;4015;48.888;9.226;2024-03-08T11:11:51;18.77;;;14.17;;
7939;SDS011;4015;48.888;9.226;2024-03-08T11:17:08;18.83;;;14.03;;
7939;SDS011;4015;48.888;9.226;2024-03-08T11:19:33;17.63;;;14.07;;
7939;SDS011;4015;48.888;9.226;2024-03-08T11:22:02;18.20;;;13.93;;
7939;SDS011;4015;48.888;9.226;2024-03-08T11:24:36;19.37;;;13.70;;
7939;SDS011;4015;48.888;9.226;2024-03-08T11:27:05;17.83;;;13.37;;
7939;SDS011;4015;48.888;9.226;2024-03-08T11:32:03;18.90;;;14.60;;
7939;SDS011;4015;48.888;9.226;2024-03-08T11:34:40;17.77;;;13.23;;
7939;SDS011;4015;48.888;9.226;2024-03-08T11:37:13;15.50;;;12.40;;
7939;SDS011;4015;48.888;9.226;2024-03-08T11:39:47;23.30;;;13.77;;
7939;SDS011;4015;48.888;9.226;2024-03-08T11:42:14;17.90;;;14.00;;
7939;SDS011;4015;48.888;9.226;2024-03-08T11:44:42;15.35;;;13.52;;
7939;SDS011;4015;48.888;9.226;2024-03-08T11:47:11;18.02;;;14.75;;
7939;SDS011;4015;48.888;9.226;2024-03-08T11:49:37;17.77;;;15.02;;
7939;SDS011;4015;48.888;9.226;2024-03-08T11:52:04;16.95;;;13.95;;
7939;SDS011;4015;48.888;9.226;2024-03-08T11:54:29;17.02;;;14.57;;
7939;SDS011;4015;48.888;9.226;2024-03-08T11:56:55;18.63;;;15.30;;
7939;SDS011;4015;48.888;9.226;2024-03-08T11:59:25;17.95;;;15.30;;
7939;SDS011;4015;48.888;9.226;2024-03-08T12:02:01;18.27;;;15.27;;
7939;SDS011;4015;48.888;9.226;2024-03-08T12:04:28;19.58;;;15.45;;
7939;SDS011;4015;48.888;9.226;2024-03-08T12:06:53;20.02;;;14.05;;
7939;SDS011;4015;48.888;9.226;2024-03-08T12:09:19;17.58;;;15.00;;
7939;SDS011;4015;48.888;9.226;2024-03-08T12:11:47;18.35;;;15.13;;
7939;SDS011;4015;48.888;9.226;2024-03-08T12:14:13;18.30;;;14.85;;
7939;SDS011;4015;48.888;9.226;2024-03-08T12:16:39;16.65;;;13.70;;
7939;SDS011;4015;48.888;9.226;2024-03-08T12:19:04;17.73;;;14.13;;
7939;SDS011;4015;48.888;9.226;2024-03-08T12:21:31;18.83;;;14.50;;
7939;SDS011;4015;48.888;9.226;2024-03-08T12:24:04;15.88;;;13.35;;
7939;SDS011;4015;48.888;9.226;2024-03-08T12:26:34;18.00;;;14.10;;
7939;SDS011;4015;48.888;9.226;2024-03-08T12:31:53;17.05;;;14.50;;
7939;SDS011;4015;48.888;9.226;2024-03-08T12:34:20;17.02;;;15.00;;
7939;SDS011;4015;48.888;9.226;2024-03-08T12:36:49;18.50;;;14.68;;
7939;SDS011;4015;48.888;9.226;2024-03-08T12:39:18;17.48;;;14.07;;
7939;SDS011;4015;48.888;9.226;2024-03-08T12:41:48;20.17;;;14.63;;
7939;SDS011;4015;48.888;9.226;2024-03-08T12:44:17;16.92;;;14.02;;
7939;SDS011;4015;48.888;9.226;2024-03-08T12:46:44;16.75;;;14.23;;
7939;SDS011;4015;48.888;9.226;2024-03-08T12:49:10;17.08;;;14.65;;
7939;SDS011;4015;48.888;9.226;2024-03-08T12:51:37;16.52;;;13.70;;
7939;SDS011;4015;48.888;9.226;2024-03-08T12:54:03;17.63;;;15.73;;
7939;SDS011;4015;48.888;9.226;2024-03-08T12:56:32;17.70;;;13.98;;
7939;SDS011;4015;48.888;9.226;2024-03-08T12:59:01;18.02;;;14.27;;
7939;SDS011;4015;48.888;9.226;2024-03-08T13:01:28;16.15;;;13.95;;
7939;SDS011;4015;48.888;9.226;2024-03-08T13:03:53;17.60;;;14.45;;
7939;SDS011;4015;48.888;9.226;2024-03-08T13:06:20;17.33;;;14.15;;
7939;SDS011;4015;48.888;9.226;2024-03-08T13:08:49;16.35;;;14.32;;
7939;SDS011;4015;48.888;9.226;2024-03-08T13:11:18;16.77;;;14.18;;
7939;SDS011;4015;48.888;9.226;2024-03-08T13:13:44;16.88;;;13.68;;
7939;SDS011;4015;48.888;9.226;2024-03-08T13:16:10;18.80;;;15.20;;
7939;SDS011;4015;48.888;9.226;2024-03-08T13:18:37;16.13;;;14.40;;
7939;SDS011;4015;48.888;9.226;2024-03-08T13:21:03;19.05;;;14.45;;
7939;SDS011;4015;48.888;9.226;2024-03-08T13:23:32;16.33;;;13.85;;
7939;SDS011;4015;48.888;9.226;2024-03-08T13:25:58;16.98;;;14.18;;
7939;SDS011;4015;48.888;9.226;2024-03-08T13:28:24;15.88;;;13.15;;
7939;SDS011;4015;48.888;9.226;2024-03-08T13:30:54;15.00;;;13.27;;
7939;SDS011;4015;48.888;9.226;2024-03-08T13:33:20;16.52;;;13.65;;
7939;SDS011;4015;48.888;9.226;2024-03-08T13:35:45;16.67;;;13.60;;
7939;SDS011;4015;48.888;9.226;2024-03-08T13:38:11;16.05;;;13.13;;
7939;SDS011;4015;48.888;9.226;2024-03-08T13:40:38;20.63;;;14.80;;
7939;SDS011;4015;48.888;9.226;2024-03-08T13:43:05;22.77;;;13.80;;
7939;SDS011;4015;48.888;9.226;2024-03-08T13:45:32;15.05;;;13.38;;
7939;SDS011;4015;48.888;9.226;2024-03-08T13:47:58;18.55;;;14.88;;
7939;SDS011;4015;48.888;9.226;2024-03-08T13:50:24;16.13;;;13.63;;
7939;SDS011;4015;48.888;9.226;2024-03-08T13:52:51;16.83;;;13.35;;
7939;SDS011;4015;48.888;9.226;2024-03-08T13:55:19;14.90;;;12.73;;
7939;SDS011;4015;48.888;9.226;2024-03-08T13:57:47;17.23;;;13.95;;
7939;SDS011;4015;48.888;9.226;2024-03-08T14:00:13;16.23;;;13.68;;
7939;SDS011;4015;48.888;9.226;2024-03-08T14:02:39;16.70;;;13.63;;
7939;SDS011;4015;48.888;9.226;2024-03-08T14:05:06;15.73;;;12.70;;
7939;SDS011;4015;48.888;9.226;2024-03-08T14:07:37;16.45;;;12.98;;
7939;SDS011;4015;48.888;9.226;2024-03-08T14:10:03;16.17;;;14.25;;
7939;SDS011;4015;48.888;9.226;2024-03-08T14:12:28;17.08;;;13.07;;
7939;SDS011;4015;48.888;9.226;2024-03-08T14:14:54;15.55;;;12.73;;
7939;SDS011;4015;48.888;9.226;2024-03-08T14:17:20;15.30;;;12.50;;
7939;SDS011;4015;48.888;9.226;2024-03-08T14:19:45;17.08;;;13.07;;
7939;SDS011;4015;48.888;9.226;2024-03-08T14:22:11;15.57;;;12.75;;
7939;SDS011;4015;48.888;9.226;2024-03-08T14:24:39;14.30;;;11.57;;
7939;SDS011;4015;48.888;9.226;2024-03-08T14:27:05;15.55;;;12.45;;
7939;SDS011;4015;48.888;9.226;2024-03-08T14:29:33;14.80;;;12.25;;
7939;SDS011;4015;48.888;9.226;2024-03-08T14:31:59;14.73;;;12.98;;
7939;SDS011;4015;48.888;9.226;2024-03-08T14:34:26;15.65;;;12.10;;
7939;SDS011;4015;48.888;9.226;2024-03-08T14:36:52;15.15;;;12.75;;
7939;SDS011;4015;48.888;9.226;2024-03-08T14:39:18;15.90;;;12.98;;
7939;SDS011;4015;48.888;9.226;2024-03-08T14:41:51;15.65;;;13.07;;
7939;SDS011;4015;48.888;9.226;2024-03-08T14:44:20;17.33;;;13.05;;
7939;SDS011;4015;48.888;9.226;2024-03-08T14:46:46;17.38;;;13.60;;
7939;SDS011;4015;48.888;9.226;2024-03-08T14:49:12;15.45;;;12.50;;
7939;SDS011;4015;48.888;9.226;2024-03-08T14:51:37;18.35;;;12.50;;
7939;SDS011;4015;48.888;9.226;2024-03-08T14:54:03;13.70;;;12.15;;
7939;SDS011;4015;48.888;9.226;2024-03-08T14:56:31;16.98;;;11.70;;
7939;SDS011;4015;48.888;9.226;2024-03-08T14:58:57;16.33;;;12.10;;
7939;SDS011;4015;48.888;9.226;2024-03-08T15:01:24;15.45;;;12.82;;